sensor_id;sensor_type;location;lat;lon;timestamp;temperature;humidity
48162;DHT22;33950;48.154;16.316;2022-12-18T00:01:39;1.70;94.10
48162;DHT22;33950;48.154;16.316;2022-12-18T00:04:26;1.80;94.30
48162;DHT22;33950;48.154;16.316;2022-12-18T00:07:14;1.80;94.30
48162;DHT22;33950;48.154;16.316;2022-12-18T00:10:00;1.80;93.90
48162;DHT22;33950;48.154;16.316;2022-12-18T00:12:46;1.80;93.80
48162;DHT22;33950;48.154;16.316;2022-12-18T00:15:34;1.80;93.90
48162;DHT22;33950;48.154;16.316;2022-12-18T00:18:20;1.80;93.80
48162;DHT22;33950;48.154;16.316;2022-12-18T00:21:09;1.70;93.80
48162;DHT22;33950;48.154;16.316;2022-12-18T00:23:58;1.80;94.00
48162;DHT22;33950;48.154;16.316;2022-12-18T00:26:44;1.80;93.50
48162;DHT22;33950;48.154;16.316;2022-12-18T00:29:30;1.70;93.70
48162;DHT22;33950;48.154;16.316;2022-12-18T00:32:16;1.70;93.70
48162;DHT22;33950;48.154;16.316;2022-12-18T00:35:03;1.60;93.60
48162;DHT22;33950;48.154;16.316;2022-12-18T00:37:49;1.50;93.70
48162;DHT22;33950;48.154;16.316;2022-12-18T00:40:37;1.40;93.70
48162;DHT22;33950;48.154;16.316;2022-12-18T00:43:23;1.30;93.90
48162;DHT22;33950;48.154;16.316;2022-12-18T00:46:09;1.20;93.80
48162;DHT22;33950;48.154;16.316;2022-12-18T00:48:55;1.10;93.80
48162;DHT22;33950;48.154;16.316;2022-12-18T00:51:41;1.00;94.00
48162;DHT22;33950;48.154;16.316;2022-12-18T00:54:27;0.90;94.10
48162;DHT22;33950;48.154;16.316;2022-12-18T00:57:15;1.00;94.40
48162;DHT22;33950;48.154;16.316;2022-12-18T01:00:01;1.10;94.40
48162;DHT22;33950;48.154;16.316;2022-12-18T01:02:47;1.20;94.30
48162;DHT22;33950;48.154;16.316;2022-12-18T01:05:33;1.30;94.30
48162;DHT22;33950;48.154;16.316;2022-12-18T01:08:19;1.30;94.10
48162;DHT22;33950;48.154;16.316;2022-12-18T01:11:08;1.30;94.20
48162;DHT22;33950;48.154;16.316;2022-12-18T01:13:55;1.30;94.10
48162;DHT22;33950;48.154;16.316;2022-12-18T01:16:41;1.30;93.90
48162;DHT22;33950;48.154;16.316;2022-12-18T01:19:27;1.30;93.90
48162;DHT22;33950;48.154;16.316;2022-12-18T01:22:13;1.20;93.80
48162;DHT22;33950;48.154;16.316;2022-12-18T01:25:00;1.20;94.00
48162;DHT22;33950;48.154;16.316;2022-12-18T01:27:46;1.10;93.60
48162;DHT22;33950;48.154;16.316;2022-12-18T01:30:33;1.00;93.70
48162;DHT22;33950;48.154;16.316;2022-12-18T01:33:19;1.00;93.60
48162;DHT22;33950;48.154;16.316;2022-12-18T01:36:06;0.90;93.70
48162;DHT22;33950;48.154;16.316;2022-12-18T01:38:53;0.80;93.10
48162;DHT22;33950;48.154;16.316;2022-12-18T01:41:39;0.80;93.50
48162;DHT22;33950;48.154;16.316;2022-12-18T01:45:06;0.90;93.30
48162;DHT22;33950;48.154;16.316;2022-12-18T01:47:55;0.80;93.20
48162;DHT22;33950;48.154;16.316;2022-12-18T01:50:42;0.80;93.30
48162;DHT22;33950;48.154;16.316;2022-12-18T01:53:29;0.90;93.50
48162;DHT22;33950;48.154;16.316;2022-12-18T01:56:16;1.00;93.50
48162;DHT22;33950;48.154;16.316;2022-12-18T01:59:05;1.00;93.10
48162;DHT22;33950;48.154;16.316;2022-12-18T02:01:53;0.90;93.10
48162;DHT22;33950;48.154;16.316;2022-12-18T02:04:41;0.90;93.20
48162;DHT22;33950;48.154;16.316;2022-12-18T02:07:35;0.90;93.00
48162;DHT22;33950;48.154;16.316;2022-12-18T02:10:27;0.90;93.30
48162;DHT22;33950;48.154;16.316;2022-12-18T02:13:19;0.80;93.40
48162;DHT22;33950;48.154;16.316;2022-12-18T02:16:13;0.60;93.00
48162;DHT22;33950;48.154;16.316;2022-12-18T02:19:08;0.50;93.40
48162;DHT22;33950;48.154;16.316;2022-12-18T02:22:06;0.50;93.20
48162;DHT22;33950;48.154;16.316;2022-12-18T02:25:06;0.60;93.40
48162;DHT22;33950;48.154;16.316;2022-12-18T02:28:00;0.60;93.30
48162;DHT22;33950;48.154;16.316;2022-12-18T02:30:49;0.60;93.10
48162;DHT22;33950;48.154;16.316;2022-12-18T02:33:37;0.50;93.40
48162;DHT22;33950;48.154;16.316;2022-12-18T02:36:25;0.50;93.40
48162;DHT22;33950;48.154;16.316;2022-12-18T02:39:13;0.50;93.40
48162;DHT22;33950;48.154;16.316;2022-12-18T02:42:01;0.50;93.20
48162;DHT22;33950;48.154;16.316;2022-12-18T02:44:56;0.50;93.30
48162;DHT22;33950;48.154;16.316;2022-12-18T02:47:44;0.50;93.30
48162;DHT22;33950;48.154;16.316;2022-12-18T02:50:35;0.50;93.20
48162;DHT22;33950;48.154;16.316;2022-12-18T02:53:24;0.40;93.30
48162;DHT22;33950;48.154;16.316;2022-12-18T02:56:17;0.40;93.20
48162;DHT22;33950;48.154;16.316;2022-12-18T02:59:07;0.30;93.30
48162;DHT22;33950;48.154;16.316;2022-12-18T03:02:00;0.30;93.40
48162;DHT22;33950;48.154;16.316;2022-12-18T03:04:49;0.30;93.50
48162;DHT22;33950;48.154;16.316;2022-12-18T03:07:43;0.40;93.50
48162;DHT22;33950;48.154;16.316;2022-12-18T03:10:35;0.40;93.50
48162;DHT22;33950;48.154;16.316;2022-12-18T03:13:30;0.40;93.50
48162;DHT22;33950;48.154;16.316;2022-12-18T03:16:22;0.40;93.70
48162;DHT22;33950;48.154;16.316;2022-12-18T03:19:14;0.40;93.50
48162;DHT22;33950;48.154;16.316;2022-12-18T03:22:03;0.40;93.40
48162;DHT22;33950;48.154;16.316;2022-12-18T03:24:51;0.30;93.40
48162;DHT22;33950;48.154;16.316;2022-12-18T03:27:46;0.20;93.50
48162;DHT22;33950;48.154;16.316;2022-12-18T03:30:35;0.20;93.70
48162;DHT22;33950;48.154;16.316;2022-12-18T03:33:26;0.30;93.60
48162;DHT22;33950;48.154;16.316;2022-12-18T03:36:15;0.30;93.70
48162;DHT22;33950;48.154;16.316;2022-12-18T03:39:01;0.30;93.70
48162;DHT22;33950;48.154;16.316;2022-12-18T03:41:51;0.30;93.70
48162;DHT22;33950;48.154;16.316;2022-12-18T03:44:42;0.40;93.70
48162;DHT22;33950;48.154;16.316;2022-12-18T03:47:35;0.40;93.80
48162;DHT22;33950;48.154;16.316;2022-12-18T03:50:29;0.20;93.80
48162;DHT22;33950;48.154;16.316;2022-12-18T03:53:24;0.10;94.00
48162;DHT22;33950;48.154;16.316;2022-12-18T03:56:16;0.00;94.40
48162;DHT22;33950;48.154;16.316;2022-12-18T03:59:03;0.00;94.50
48162;DHT22;33950;48.154;16.316;2022-12-18T04:01:52;-0.10;94.60
48162;DHT22;33950;48.154;16.316;2022-12-18T04:04:39;-0.20;94.80
48162;DHT22;33950;48.154;16.316;2022-12-18T04:07:26;-0.20;94.90
48162;DHT22;33950;48.154;16.316;2022-12-18T04:10:16;-0.20;95.00
48162;DHT22;33950;48.154;16.316;2022-12-18T04:13:02;-0.20;94.80
48162;DHT22;33950;48.154;16.316;2022-12-18T04:15:48;-0.10;94.90
48162;DHT22;33950;48.154;16.316;2022-12-18T04:18:35;-0.20;94.90
48162;DHT22;33950;48.154;16.316;2022-12-18T04:21:21;-0.20;95.00
48162;DHT22;33950;48.154;16.316;2022-12-18T04:24:08;-0.20;94.90
48162;DHT22;33950;48.154;16.316;2022-12-18T04:26:55;-0.30;94.90
48162;DHT22;33950;48.154;16.316;2022-12-18T04:29:41;-0.20;94.80
48162;DHT22;33950;48.154;16.316;2022-12-18T04:32:28;-0.30;94.60
48162;DHT22;33950;48.154;16.316;2022-12-18T04:35:14;-0.30;94.70
48162;DHT22;33950;48.154;16.316;2022-12-18T04:38:00;-0.30;94.60
48162;DHT22;33950;48.154;16.316;2022-12-18T04:40:46;-0.30;94.80
48162;DHT22;33950;48.154;16.316;2022-12-18T04:43:33;-0.40;94.60
48162;DHT22;33950;48.154;16.316;2022-12-18T04:46:19;-0.40;94.60
48162;DHT22;33950;48.154;16.316;2022-12-18T04:49:06;-0.50;94.70
48162;DHT22;33950;48.154;16.316;2022-12-18T04:51:52;-0.50;94.70
48162;DHT22;33950;48.154;16.316;2022-12-18T04:54:38;-0.50;94.80
48162;DHT22;33950;48.154;16.316;2022-12-18T04:57:24;-0.50;94.80
48162;DHT22;33950;48.154;16.316;2022-12-18T05:00:13;-0.50;94.80
48162;DHT22;33950;48.154;16.316;2022-12-18T05:03:00;-0.40;94.70
48162;DHT22;33950;48.154;16.316;2022-12-18T05:05:49;-0.30;94.60
48162;DHT22;33950;48.154;16.316;2022-12-18T05:08:35;-0.20;94.30
48162;DHT22;33950;48.154;16.316;2022-12-18T05:11:22;-0.20;94.20
48162;DHT22;33950;48.154;16.316;2022-12-18T05:14:08;-0.40;94.10
48162;DHT22;33950;48.154;16.316;2022-12-18T05:16:55;-0.50;94.20
48162;DHT22;33950;48.154;16.316;2022-12-18T05:19:41;-0.60;94.40
48162;DHT22;33950;48.154;16.316;2022-12-18T05:22:27;-0.60;94.60
48162;DHT22;33950;48.154;16.316;2022-12-18T05:25:13;-0.40;94.60
48162;DHT22;33950;48.154;16.316;2022-12-18T05:27:59;-0.30;94.40
48162;DHT22;33950;48.154;16.316;2022-12-18T05:30:48;-0.20;94.30
48162;DHT22;33950;48.154;16.316;2022-12-18T05:33:37;-0.20;94.40
48162;DHT22;33950;48.154;16.316;2022-12-18T05:36:23;-0.20;94.00
48162;DHT22;33950;48.154;16.316;2022-12-18T05:39:09;-0.10;93.90
48162;DHT22;33950;48.154;16.316;2022-12-18T05:41:55;-0.10;93.90
48162;DHT22;33950;48.154;16.316;2022-12-18T05:44:41;-0.10;93.90
48162;DHT22;33950;48.154;16.316;2022-12-18T05:47:28;-0.10;93.50
48162;DHT22;33950;48.154;16.316;2022-12-18T05:50:16;-0.20;93.70
48162;DHT22;33950;48.154;16.316;2022-12-18T05:53:02;-0.50;93.50
48162;DHT22;33950;48.154;16.316;2022-12-18T05:55:48;-0.90;93.90
48162;DHT22;33950;48.154;16.316;2022-12-18T05:58:35;-1.10;94.20
48162;DHT22;33950;48.154;16.316;2022-12-18T06:01:22;-1.20;94.60
48162;DHT22;33950;48.154;16.316;2022-12-18T06:04:09;-1.30;94.70
48162;DHT22;33950;48.154;16.316;2022-12-18T06:06:56;-1.30;94.80
48162;DHT22;33950;48.154;16.316;2022-12-18T06:09:42;-1.40;94.80
48162;DHT22;33950;48.154;16.316;2022-12-18T06:12:29;-1.40;94.80
48162;DHT22;33950;48.154;16.316;2022-12-18T06:15:15;-1.50;94.80
48162;DHT22;33950;48.154;16.316;2022-12-18T06:18:01;-1.50;94.80
48162;DHT22;33950;48.154;16.316;2022-12-18T06:20:54;-1.60;95.00
48162;DHT22;33950;48.154;16.316;2022-12-18T06:23:42;-1.60;95.10
48162;DHT22;33950;48.154;16.316;2022-12-18T06:26:29;-1.60;95.20
48162;DHT22;33950;48.154;16.316;2022-12-18T06:29:15;-1.60;95.20
48162;DHT22;33950;48.154;16.316;2022-12-18T06:32:01;-1.60;95.40
48162;DHT22;33950;48.154;16.316;2022-12-18T06:34:47;-1.40;95.30
48162;DHT22;33950;48.154;16.316;2022-12-18T06:37:33;-1.20;95.20
48162;DHT22;33950;48.154;16.316;2022-12-18T06:40:21;-1.00;94.80
48162;DHT22;33950;48.154;16.316;2022-12-18T06:43:07;-0.90;94.30
48162;DHT22;33950;48.154;16.316;2022-12-18T06:45:58;-0.90;94.10
48162;DHT22;33950;48.154;16.316;2022-12-18T06:48:47;-0.90;94.00
48162;DHT22;33950;48.154;16.316;2022-12-18T06:51:34;-0.80;93.90
48162;DHT22;33950;48.154;16.316;2022-12-18T06:54:20;-0.70;94.00
48162;DHT22;33950;48.154;16.316;2022-12-18T06:57:08;-0.70;93.80
48162;DHT22;33950;48.154;16.316;2022-12-18T06:59:54;-0.70;93.60
48162;DHT22;33950;48.154;16.316;2022-12-18T07:02:40;-0.70;93.80
48162;DHT22;33950;48.154;16.316;2022-12-18T07:05:26;-0.60;93.70
48162;DHT22;33950;48.154;16.316;2022-12-18T07:08:12;-0.60;93.60
48162;DHT22;33950;48.154;16.316;2022-12-18T07:10:58;-0.70;93.60
48162;DHT22;33950;48.154;16.316;2022-12-18T07:13:46;-0.70;93.60
48162;DHT22;33950;48.154;16.316;2022-12-18T07:16:33;-0.70;93.60
48162;DHT22;33950;48.154;16.316;2022-12-18T07:19:19;-0.70;93.50
48162;DHT22;33950;48.154;16.316;2022-12-18T07:22:05;-0.70;93.50
48162;DHT22;33950;48.154;16.316;2022-12-18T07:24:51;-0.70;93.50
48162;DHT22;33950;48.154;16.316;2022-12-18T07:27:37;-0.90;93.50
48162;DHT22;33950;48.154;16.316;2022-12-18T07:30:24;-1.10;93.70
48162;DHT22;33950;48.154;16.316;2022-12-18T07:33:10;-1.20;93.70
48162;DHT22;33950;48.154;16.316;2022-12-18T07:35:58;-1.40;93.80
48162;DHT22;33950;48.154;16.316;2022-12-18T07:38:46;-1.50;93.90
48162;DHT22;33950;48.154;16.316;2022-12-18T07:41:33;-1.60;94.00
48162;DHT22;33950;48.154;16.316;2022-12-18T07:44:19;-1.60;94.30
48162;DHT22;33950;48.154;16.316;2022-12-18T07:47:06;-1.50;94.20
48162;DHT22;33950;48.154;16.316;2022-12-18T07:49:53;-1.50;94.20
48162;DHT22;33950;48.154;16.316;2022-12-18T07:52:39;-1.40;94.30
48162;DHT22;33950;48.154;16.316;2022-12-18T07:55:25;-1.40;94.20
48162;DHT22;33950;48.154;16.316;2022-12-18T07:58:11;-1.40;94.20
48162;DHT22;33950;48.154;16.316;2022-12-18T08:01:03;-1.40;94.10
48162;DHT22;33950;48.154;16.316;2022-12-18T08:03:50;-1.40;94.20
48162;DHT22;33950;48.154;16.316;2022-12-18T08:06:36;-1.40;94.20
48162;DHT22;33950;48.154;16.316;2022-12-18T08:09:23;-1.40;94.40
48162;DHT22;33950;48.154;16.316;2022-12-18T08:12:09;-1.30;94.70
48162;DHT22;33950;48.154;16.316;2022-12-18T08:14:55;-1.20;94.50
48162;DHT22;33950;48.154;16.316;2022-12-18T08:17:41;-1.10;94.30
48162;DHT22;33950;48.154;16.316;2022-12-18T08:20:28;-1.10;94.30
48162;DHT22;33950;48.154;16.316;2022-12-18T08:23:14;-1.00;94.50
48162;DHT22;33950;48.154;16.316;2022-12-18T08:26:00;-0.80;94.50
48162;DHT22;33950;48.154;16.316;2022-12-18T08:28:47;-0.70;94.50
48162;DHT22;33950;48.154;16.316;2022-12-18T08:31:33;-0.50;94.40
48162;DHT22;33950;48.154;16.316;2022-12-18T08:34:19;-0.40;94.20
48162;DHT22;33950;48.154;16.316;2022-12-18T08:37:07;-0.30;94.30
48162;DHT22;33950;48.154;16.316;2022-12-18T08:39:53;-0.20;94.30
48162;DHT22;33950;48.154;16.316;2022-12-18T08:42:39;0.00;94.40
48162;DHT22;33950;48.154;16.316;2022-12-18T08:45:43;0.10;93.80
48162;DHT22;33950;48.154;16.316;2022-12-18T08:48:29;0.10;94.00
48162;DHT22;33950;48.154;16.316;2022-12-18T08:51:18;0.00;94.40
48162;DHT22;33950;48.154;16.316;2022-12-18T08:54:06;0.10;95.00
48162;DHT22;33950;48.154;16.316;2022-12-18T08:56:52;0.10;94.60
48162;DHT22;33950;48.154;16.316;2022-12-18T08:59:38;0.20;94.50
48162;DHT22;33950;48.154;16.316;2022-12-18T09:02:24;0.30;94.40
48162;DHT22;33950;48.154;16.316;2022-12-18T09:05:10;0.50;94.10
48162;DHT22;33950;48.154;16.316;2022-12-18T09:07:57;0.50;93.70
48162;DHT22;33950;48.154;16.316;2022-12-18T09:10:45;0.40;93.50
48162;DHT22;33950;48.154;16.316;2022-12-18T09:13:31;0.50;93.90
48162;DHT22;33950;48.154;16.316;2022-12-18T09:16:18;0.50;94.00
48162;DHT22;33950;48.154;16.316;2022-12-18T09:19:05;0.70;94.00
48162;DHT22;33950;48.154;16.316;2022-12-18T09:21:52;0.90;94.00
48162;DHT22;33950;48.154;16.316;2022-12-18T09:24:38;0.90;93.60
48162;DHT22;33950;48.154;16.316;2022-12-18T09:27:25;0.90;93.70
48162;DHT22;33950;48.154;16.316;2022-12-18T09:30:12;1.00;93.40
48162;DHT22;33950;48.154;16.316;2022-12-18T09:32:58;0.90;93.50
48162;DHT22;33950;48.154;16.316;2022-12-18T09:35:45;0.90;93.50
48162;DHT22;33950;48.154;16.316;2022-12-18T09:38:31;1.00;93.50
48162;DHT22;33950;48.154;16.316;2022-12-18T09:41:34;1.00;93.30
48162;DHT22;33950;48.154;16.316;2022-12-18T09:44:25;1.00;93.20
48162;DHT22;33950;48.154;16.316;2022-12-18T09:47:15;0.90;93.50
48162;DHT22;33950;48.154;16.316;2022-12-18T09:50:06;0.80;93.30
48162;DHT22;33950;48.154;16.316;2022-12-18T09:53:05;0.80;93.40
48162;DHT22;33950;48.154;16.316;2022-12-18T09:55:52;0.80;93.50
48162;DHT22;33950;48.154;16.316;2022-12-18T09:58:43;0.70;93.50
48162;DHT22;33950;48.154;16.316;2022-12-18T10:01:32;0.70;93.50
48162;DHT22;33950;48.154;16.316;2022-12-18T10:04:19;0.70;93.60
48162;DHT22;33950;48.154;16.316;2022-12-18T10:07:10;0.70;93.80
48162;DHT22;33950;48.154;16.316;2022-12-18T10:10:02;0.80;93.50
48162;DHT22;33950;48.154;16.316;2022-12-18T10:12:58;0.70;93.40
48162;DHT22;33950;48.154;16.316;2022-12-18T10:15:54;0.60;93.60
48162;DHT22;33950;48.154;16.316;2022-12-18T10:18:59;0.60;93.50
48162;DHT22;33950;48.154;16.316;2022-12-18T10:21:54;0.80;94.20
48162;DHT22;33950;48.154;16.316;2022-12-18T10:24:48;1.10;95.70
48162;DHT22;33950;48.154;16.316;2022-12-18T10:27:36;1.20;93.20
48162;DHT22;33950;48.154;16.316;2022-12-18T10:30:24;1.10;93.30
48162;DHT22;33950;48.154;16.316;2022-12-18T10:33:11;1.10;93.10
48162;DHT22;33950;48.154;16.316;2022-12-18T10:36:04;1.00;93.10
48162;DHT22;33950;48.154;16.316;2022-12-18T10:38:52;0.90;93.00
48162;DHT22;33950;48.154;16.316;2022-12-18T10:41:38;0.90;93.00
48162;DHT22;33950;48.154;16.316;2022-12-18T10:44:24;0.90;93.10
48162;DHT22;33950;48.154;16.316;2022-12-18T10:47:15;0.90;93.00
48162;DHT22;33950;48.154;16.316;2022-12-18T10:50:04;0.80;93.10
48162;DHT22;33950;48.154;16.316;2022-12-18T10:52:59;0.70;93.20
48162;DHT22;33950;48.154;16.316;2022-12-18T10:55:46;0.70;93.20
48162;DHT22;33950;48.154;16.316;2022-12-18T10:58:34;0.70;93.00
48162;DHT22;33950;48.154;16.316;2022-12-18T11:01:23;0.80;93.00
48162;DHT22;33950;48.154;16.316;2022-12-18T11:04:13;0.80;93.00
48162;DHT22;33950;48.154;16.316;2022-12-18T11:07:03;0.70;93.00
48162;DHT22;33950;48.154;16.316;2022-12-18T11:10:03;0.50;92.90
48162;DHT22;33950;48.154;16.316;2022-12-18T11:12:50;0.50;93.10
48162;DHT22;33950;48.154;16.316;2022-12-18T11:15:36;0.50;93.20
48162;DHT22;33950;48.154;16.316;2022-12-18T11:18:25;0.60;93.20
48162;DHT22;33950;48.154;16.316;2022-12-18T11:21:13;0.50;93.60
48162;DHT22;33950;48.154;16.316;2022-12-18T11:23:59;0.60;93.70
48162;DHT22;33950;48.154;16.316;2022-12-18T11:26:47;0.70;93.50
48162;DHT22;33950;48.154;16.316;2022-12-18T11:29:35;0.80;93.30
48162;DHT22;33950;48.154;16.316;2022-12-18T11:32:29;0.90;93.10
48162;DHT22;33950;48.154;16.316;2022-12-18T11:35:21;0.90;93.30
48162;DHT22;33950;48.154;16.316;2022-12-18T11:38:17;0.90;93.20
48162;DHT22;33950;48.154;16.316;2022-12-18T11:41:21;1.00;93.10
48162;DHT22;33950;48.154;16.316;2022-12-18T11:44:35;1.10;92.80
48162;DHT22;33950;48.154;16.316;2022-12-18T11:47:28;1.10;92.80
48162;DHT22;33950;48.154;16.316;2022-12-18T11:50:20;1.10;92.80
48162;DHT22;33950;48.154;16.316;2022-12-18T11:53:11;1.00;92.50
48162;DHT22;33950;48.154;16.316;2022-12-18T11:56:06;1.00;92.70
48162;DHT22;33950;48.154;16.316;2022-12-18T11:59:00;0.80;92.60
48162;DHT22;33950;48.154;16.316;2022-12-18T12:01:56;0.80;93.00
48162;DHT22;33950;48.154;16.316;2022-12-18T12:05:04;0.90;93.10
48162;DHT22;33950;48.154;16.316;2022-12-18T12:07:57;1.00;93.00
48162;DHT22;33950;48.154;16.316;2022-12-18T12:10:53;1.00;92.80
48162;DHT22;33950;48.154;16.316;2022-12-18T12:13:49;1.10;92.80
48162;DHT22;33950;48.154;16.316;2022-12-18T12:16:42;1.10;92.70
48162;DHT22;33950;48.154;16.316;2022-12-18T12:19:39;1.10;92.90
48162;DHT22;33950;48.154;16.316;2022-12-18T12:22:35;1.20;93.00
48162;DHT22;33950;48.154;16.316;2022-12-18T12:25:33;1.30;92.80
48162;DHT22;33950;48.154;16.316;2022-12-18T12:28:45;1.40;92.80
48162;DHT22;33950;48.154;16.316;2022-12-18T12:31:47;1.40;92.70
48162;DHT22;33950;48.154;16.316;2022-12-18T12:34:48;1.50;92.70
48162;DHT22;33950;48.154;16.316;2022-12-18T12:37:41;1.50;92.50
48162;DHT22;33950;48.154;16.316;2022-12-18T12:40:33;1.50;92.30
48162;DHT22;33950;48.154;16.316;2022-12-18T12:43:25;1.50;92.40
48162;DHT22;33950;48.154;16.316;2022-12-18T12:46:14;1.50;92.70
48162;DHT22;33950;48.154;16.316;2022-12-18T12:49:03;1.50;92.30
48162;DHT22;33950;48.154;16.316;2022-12-18T12:51:58;1.40;92.30
48162;DHT22;33950;48.154;16.316;2022-12-18T12:54:48;1.40;92.40
48162;DHT22;33950;48.154;16.316;2022-12-18T12:57:39;1.50;92.60
48162;DHT22;33950;48.154;16.316;2022-12-18T13:00:29;1.60;92.50
48162;DHT22;33950;48.154;16.316;2022-12-18T13:03:27;1.60;92.40
48162;DHT22;33950;48.154;16.316;2022-12-18T13:06:23;1.60;92.80
48162;DHT22;33950;48.154;16.316;2022-12-18T13:09:13;1.70;92.50
48162;DHT22;33950;48.154;16.316;2022-12-18T13:12:02;1.70;92.40
48162;DHT22;33950;48.154;16.316;2022-12-18T13:15:21;1.70;92.40
48162;DHT22;33950;48.154;16.316;2022-12-18T13:18:14;1.70;92.50
48162;DHT22;33950;48.154;16.316;2022-12-18T13:21:07;1.70;92.50
48162;DHT22;33950;48.154;16.316;2022-12-18T13:23:56;1.70;92.70
48162;DHT22;33950;48.154;16.316;2022-12-18T13:26:44;1.70;92.50
48162;DHT22;33950;48.154;16.316;2022-12-18T13:29:43;1.60;92.50
48162;DHT22;33950;48.154;16.316;2022-12-18T13:32:30;1.70;92.80
48162;DHT22;33950;48.154;16.316;2022-12-18T13:35:38;1.70;92.50
48162;DHT22;33950;48.154;16.316;2022-12-18T13:38:33;1.60;92.40
48162;DHT22;33950;48.154;16.316;2022-12-18T13:41:25;1.70;92.50
48162;DHT22;33950;48.154;16.316;2022-12-18T13:44:26;1.70;92.40
48162;DHT22;33950;48.154;16.316;2022-12-18T13:47:27;1.70;92.40
48162;DHT22;33950;48.154;16.316;2022-12-18T13:50:22;1.70;92.40
48162;DHT22;33950;48.154;16.316;2022-12-18T13:53:18;1.70;92.50
48162;DHT22;33950;48.154;16.316;2022-12-18T13:56:06;1.70;92.50
48162;DHT22;33950;48.154;16.316;2022-12-18T13:59:14;1.70;92.50
48162;DHT22;33950;48.154;16.316;2022-12-18T14:02:05;1.70;92.60
48162;DHT22;33950;48.154;16.316;2022-12-18T14:04:53;1.70;92.50
48162;DHT22;33950;48.154;16.316;2022-12-18T14:07:40;1.70;92.60
48162;DHT22;33950;48.154;16.316;2022-12-18T14:10:27;1.70;92.50
48162;DHT22;33950;48.154;16.316;2022-12-18T14:13:18;1.70;92.50
48162;DHT22;33950;48.154;16.316;2022-12-18T14:16:07;1.70;92.50
48162;DHT22;33950;48.154;16.316;2022-12-18T14:18:55;1.70;92.80
48162;DHT22;33950;48.154;16.316;2022-12-18T14:21:45;1.70;92.50
48162;DHT22;33950;48.154;16.316;2022-12-18T14:24:32;1.70;92.50
48162;DHT22;33950;48.154;16.316;2022-12-18T14:27:22;1.60;92.50
48162;DHT22;33950;48.154;16.316;2022-12-18T14:30:24;1.70;92.70
48162;DHT22;33950;48.154;16.316;2022-12-18T14:33:16;1.70;92.50
48162;DHT22;33950;48.154;16.316;2022-12-18T14:36:05;1.60;92.50
48162;DHT22;33950;48.154;16.316;2022-12-18T14:38:52;1.50;92.70
48162;DHT22;33950;48.154;16.316;2022-12-18T14:41:39;1.50;92.60
48162;DHT22;33950;48.154;16.316;2022-12-18T14:44:26;1.50;92.80
48162;DHT22;33950;48.154;16.316;2022-12-18T14:47:14;1.50;92.90
48162;DHT22;33950;48.154;16.316;2022-12-18T14:50:02;1.50;92.80
48162;DHT22;33950;48.154;16.316;2022-12-18T14:52:48;1.50;92.90
48162;DHT22;33950;48.154;16.316;2022-12-18T14:55:35;1.50;92.90
48162;DHT22;33950;48.154;16.316;2022-12-18T14:58:22;1.40;92.70
48162;DHT22;33950;48.154;16.316;2022-12-18T15:01:08;1.50;93.10
48162;DHT22;33950;48.154;16.316;2022-12-18T15:03:56;1.50;93.00
48162;DHT22;33950;48.154;16.316;2022-12-18T15:06:43;1.40;93.10
48162;DHT22;33950;48.154;16.316;2022-12-18T15:09:31;1.40;93.00
48162;DHT22;33950;48.154;16.316;2022-12-18T15:12:24;1.40;93.00
48162;DHT22;33950;48.154;16.316;2022-12-18T15:15:46;1.40;93.00
48162;DHT22;33950;48.154;16.316;2022-12-18T15:18:35;1.40;93.00
48162;DHT22;33950;48.154;16.316;2022-12-18T15:21:26;1.40;93.20
48162;DHT22;33950;48.154;16.316;2022-12-18T15:24:24;1.40;93.20
48162;DHT22;33950;48.154;16.316;2022-12-18T15:27:21;1.50;93.40
48162;DHT22;33950;48.154;16.316;2022-12-18T15:30:19;1.50;93.50
48162;DHT22;33950;48.154;16.316;2022-12-18T15:33:22;1.50;93.40
48162;DHT22;33950;48.154;16.316;2022-12-18T15:36:12;1.50;93.40
48162;DHT22;33950;48.154;16.316;2022-12-18T15:38:58;1.50;93.50
48162;DHT22;33950;48.154;16.316;2022-12-18T15:41:46;1.60;93.30
48162;DHT22;33950;48.154;16.316;2022-12-18T15:44:51;1.60;93.30
48162;DHT22;33950;48.154;16.316;2022-12-18T15:47:37;1.50;93.20
48162;DHT22;33950;48.154;16.316;2022-12-18T15:50:23;1.50;93.40
48162;DHT22;33950;48.154;16.316;2022-12-18T15:53:10;1.40;93.20
48162;DHT22;33950;48.154;16.316;2022-12-18T15:55:56;1.30;93.30
48162;DHT22;33950;48.154;16.316;2022-12-18T15:59:04;1.20;93.60
48162;DHT22;33950;48.154;16.316;2022-12-18T16:01:54;1.20;93.70
48162;DHT22;33950;48.154;16.316;2022-12-18T16:04:41;1.30;93.80
48162;DHT22;33950;48.154;16.316;2022-12-18T16:07:27;1.30;93.70
48162;DHT22;33950;48.154;16.316;2022-12-18T16:10:13;1.30;93.70
48162;DHT22;33950;48.154;16.316;2022-12-18T16:12:59;1.30;93.60
48162;DHT22;33950;48.154;16.316;2022-12-18T16:15:47;1.30;93.50
48162;DHT22;33950;48.154;16.316;2022-12-18T16:18:33;1.20;93.70
48162;DHT22;33950;48.154;16.316;2022-12-18T16:21:19;1.20;93.90
48162;DHT22;33950;48.154;16.316;2022-12-18T16:24:08;1.10;93.80
48162;DHT22;33950;48.154;16.316;2022-12-18T16:26:59;1.00;94.00
48162;DHT22;33950;48.154;16.316;2022-12-18T16:29:45;1.10;94.00
48162;DHT22;33950;48.154;16.316;2022-12-18T16:32:33;1.10;94.00
48162;DHT22;33950;48.154;16.316;2022-12-18T16:35:19;1.10;94.10
48162;DHT22;33950;48.154;16.316;2022-12-18T16:38:05;1.10;94.20
48162;DHT22;33950;48.154;16.316;2022-12-18T16:40:51;1.10;94.40
48162;DHT22;33950;48.154;16.316;2022-12-18T16:43:56;1.10;94.20
48162;DHT22;33950;48.154;16.316;2022-12-18T16:46:42;1.20;94.20
48162;DHT22;33950;48.154;16.316;2022-12-18T16:49:32;1.20;94.10
48162;DHT22;33950;48.154;16.316;2022-12-18T16:52:19;1.20;94.10
48162;DHT22;33950;48.154;16.316;2022-12-18T16:55:06;1.20;94.10
48162;DHT22;33950;48.154;16.316;2022-12-18T16:57:52;1.10;94.30
48162;DHT22;33950;48.154;16.316;2022-12-18T17:00:41;1.00;94.40
48162;DHT22;33950;48.154;16.316;2022-12-18T17:03:27;1.00;94.60
48162;DHT22;33950;48.154;16.316;2022-12-18T17:06:15;1.00;94.70
48162;DHT22;33950;48.154;16.316;2022-12-18T17:09:03;1.00;94.90
48162;DHT22;33950;48.154;16.316;2022-12-18T17:11:50;0.90;94.80
48162;DHT22;33950;48.154;16.316;2022-12-18T17:14:36;0.90;94.90
48162;DHT22;33950;48.154;16.316;2022-12-18T17:17:25;0.90;94.90
48162;DHT22;33950;48.154;16.316;2022-12-18T17:20:11;0.90;95.00
48162;DHT22;33950;48.154;16.316;2022-12-18T17:22:59;0.90;94.90
48162;DHT22;33950;48.154;16.316;2022-12-18T17:25:45;0.90;95.00
48162;DHT22;33950;48.154;16.316;2022-12-18T17:28:31;0.90;95.00
48162;DHT22;33950;48.154;16.316;2022-12-18T17:31:22;0.90;95.10
48162;DHT22;33950;48.154;16.316;2022-12-18T17:34:09;0.90;95.10
48162;DHT22;33950;48.154;16.316;2022-12-18T17:36:55;1.00;95.20
48162;DHT22;33950;48.154;16.316;2022-12-18T17:39:43;1.00;95.20
48162;DHT22;33950;48.154;16.316;2022-12-18T17:42:29;0.90;95.30
48162;DHT22;33950;48.154;16.316;2022-12-18T17:45:15;1.00;95.30
48162;DHT22;33950;48.154;16.316;2022-12-18T17:48:01;1.00;95.50